sensor_id;sensor_type;location;lat;lon;timestamp;P1;durP1;ratioP1;P2;durP2;ratioP2
76962;SDS011;65902;51.452;7.198;2023-03-03T00:00:39;53.00;;;28.40;;
76962;SDS011;65902;51.452;7.198;2023-03-03T00:01:40;51.03;;;27.05;;
76962;SDS011;65902;51.452;7.198;2023-03-03T00:02:42;43.38;;;27.80;;
76962;SDS011;65902;51.452;7.198;2023-03-03T00:03:42;44.83;;;29.15;;
76962;SDS011;65902;51.452;7.198;2023-03-03T00:04:43;55.15;;;32.17;;
76962;SDS011;65902;51.452;7.198;2023-03-03T00:05:44;47.97;;;29.50;;
76962;SDS011;65902;51.452;7.198;2023-03-03T00:06:44;54.20;;;28.63;;
76962;SDS011;65902;51.452;7.198;2023-03-03T00:07:45;53.15;;;27.65;;
76962;SDS011;65902;51.452;7.198;2023-03-03T00:08:56;42.05;;;26.95;;
76962;SDS011;65902;51.452;7.198;2023-03-03T00:09:59;46.08;;;29.10;;
76962;SDS011;65902;51.452;7.198;2023-03-03T00:11:00;49.35;;;27.77;;
76962;SDS011;65902;51.452;7.198;2023-03-03T00:12:16;53.42;;;30.38;;
76962;SDS011;65902;51.452;7.198;2023-03-03T00:13:43;49.50;;;28.52;;
76962;SDS011;65902;51.452;7.198;2023-03-03T00:14:52;46.17;;;32.47;;
76962;SDS011;65902;51.452;7.198;2023-03-03T00:15:56;50.80;;;32.08;;
76962;SDS011;65902;51.452;7.198;2023-03-03T00:17:37;49.33;;;25.38;;
76962;SDS011;65902;51.452;7.198;2023-03-03T00:18:43;47.40;;;26.63;;
76962;SDS011;65902;51.452;7.198;2023-03-03T00:19:46;48.85;;;26.10;;
76962;SDS011;65902;51.452;7.198;2023-03-03T00:20:55;41.72;;;24.60;;
76962;SDS011;65902;51.452;7.198;2023-03-03T00:21:57;50.05;;;33.75;;
76962;SDS011;65902;51.452;7.198;2023-03-03T00:24:36;45.53;;;25.23;;
76962;SDS011;65902;51.452;7.198;2023-03-03T00:25:43;46.03;;;26.42;;
76962;SDS011;65902;51.452;7.198;2023-03-03T00:26:54;36.58;;;26.25;;
76962;SDS011;65902;51.452;7.198;2023-03-03T00:28:06;41.42;;;23.90;;
76962;SDS011;65902;51.452;7.198;2023-03-03T00:29:32;44.25;;;24.05;;
76962;SDS011;65902;51.452;7.198;2023-03-03T00:30:47;46.55;;;31.67;;
76962;SDS011;65902;51.452;7.198;2023-03-03T00:31:55;46.03;;;27.75;;
76962;SDS011;65902;51.452;7.198;2023-03-03T00:33:30;51.13;;;28.33;;
76962;SDS011;65902;51.452;7.198;2023-03-03T00:34:33;48.47;;;27.02;;
76962;SDS011;65902;51.452;7.198;2023-03-03T00:35:36;49.10;;;28.88;;
76962;SDS011;65902;51.452;7.198;2023-03-03T00:36:38;49.95;;;28.40;;
76962;SDS011;65902;51.452;7.198;2023-03-03T00:37:43;31.75;;;28.55;;
76962;SDS011;65902;51.452;7.198;2023-03-03T00:38:46;44.97;;;29.02;;
76962;SDS011;65902;51.452;7.198;2023-03-03T00:39:48;31.60;;;21.48;;
76962;SDS011;65902;51.452;7.198;2023-03-03T00:40:50;54.42;;;27.90;;
76962;SDS011;65902;51.452;7.198;2023-03-03T00:41:54;45.05;;;30.90;;
76962;SDS011;65902;51.452;7.198;2023-03-03T00:43:22;49.13;;;29.48;;
76962;SDS011;65902;51.452;7.198;2023-03-03T00:45:56;29.73;;;25.20;;
76962;SDS011;65902;51.452;7.198;2023-03-03T00:46:57;48.53;;;25.60;;
76962;SDS011;65902;51.452;7.198;2023-03-03T00:49:34;48.65;;;28.08;;
76962;SDS011;65902;51.452;7.198;2023-03-03T00:50:42;54.90;;;32.30;;
76962;SDS011;65902;51.452;7.198;2023-03-03T00:51:44;39.10;;;24.30;;
76962;SDS011;65902;51.452;7.198;2023-03-03T00:52:52;51.95;;;28.38;;
76962;SDS011;65902;51.452;7.198;2023-03-03T00:53:58;38.33;;;24.55;;
76962;SDS011;65902;51.452;7.198;2023-03-03T00:54:59;51.53;;;27.80;;
76962;SDS011;65902;51.452;7.198;2023-03-03T00:56:03;49.63;;;26.50;;
76962;SDS011;65902;51.452;7.198;2023-03-03T00:57:07;52.25;;;28.45;;
76962;SDS011;65902;51.452;7.198;2023-03-03T00:58:43;52.58;;;29.63;;
76962;SDS011;65902;51.452;7.198;2023-03-03T00:59:45;48.38;;;26.23;;
76962;SDS011;65902;51.452;7.198;2023-03-03T01:00:49;53.67;;;27.75;;
76962;SDS011;65902;51.452;7.198;2023-03-03T01:01:53;48.85;;;24.13;;
76962;SDS011;65902;51.452;7.198;2023-03-03T01:02:57;49.67;;;27.27;;
76962;SDS011;65902;51.452;7.198;2023-03-03T01:04:06;52.00;;;26.50;;
76962;SDS011;65902;51.452;7.198;2023-03-03T01:05:06;53.10;;;28.33;;
76962;SDS011;65902;51.452;7.198;2023-03-03T01:06:09;51.28;;;28.25;;
76962;SDS011;65902;51.452;7.198;2023-03-03T01:07:10;59.00;;;31.10;;
76962;SDS011;65902;51.452;7.198;2023-03-03T01:08:14;36.53;;;19.25;;
76962;SDS011;65902;51.452;7.198;2023-03-03T01:09:17;46.45;;;25.02;;
76962;SDS011;65902;51.452;7.198;2023-03-03T01:10:18;42.47;;;24.10;;
76962;SDS011;65902;51.452;7.198;2023-03-03T01:11:20;44.05;;;24.10;;
76962;SDS011;65902;51.452;7.198;2023-03-03T01:12:39;46.45;;;27.83;;
76962;SDS011;65902;51.452;7.198;2023-03-03T01:14:30;36.42;;;21.23;;
76962;SDS011;65902;51.452;7.198;2023-03-03T01:16:09;31.70;;;20.17;;
76962;SDS011;65902;51.452;7.198;2023-03-03T01:17:10;38.80;;;26.27;;
76962;SDS011;65902;51.452;7.198;2023-03-03T01:18:14;45.58;;;27.33;;
76962;SDS011;65902;51.452;7.198;2023-03-03T01:19:15;45.13;;;24.58;;
76962;SDS011;65902;51.452;7.198;2023-03-03T01:20:23;46.35;;;26.33;;
76962;SDS011;65902;51.452;7.198;2023-03-03T01:21:26;36.95;;;19.02;;
76962;SDS011;65902;51.452;7.198;2023-03-03T01:22:29;50.80;;;28.83;;
76962;SDS011;65902;51.452;7.198;2023-03-03T01:23:30;48.47;;;28.98;;
76962;SDS011;65902;51.452;7.198;2023-03-03T01:24:31;52.47;;;25.63;;
76962;SDS011;65902;51.452;7.198;2023-03-03T01:25:32;49.33;;;26.60;;
76962;SDS011;65902;51.452;7.198;2023-03-03T01:26:33;47.50;;;25.55;;
76962;SDS011;65902;51.452;7.198;2023-03-03T01:27:37;48.95;;;24.58;;
76962;SDS011;65902;51.452;7.198;2023-03-03T01:28:40;48.72;;;28.20;;
76962;SDS011;65902;51.452;7.198;2023-03-03T01:29:45;57.35;;;27.17;;
76962;SDS011;65902;51.452;7.198;2023-03-03T01:30:46;51.00;;;25.17;;
76962;SDS011;65902;51.452;7.198;2023-03-03T01:31:53;49.42;;;26.88;;
76962;SDS011;65902;51.452;7.198;2023-03-03T01:32:54;44.80;;;25.02;;
76962;SDS011;65902;51.452;7.198;2023-03-03T01:33:54;41.53;;;23.55;;
76962;SDS011;65902;51.452;7.198;2023-03-03T01:35:00;52.92;;;30.80;;
76962;SDS011;65902;51.452;7.198;2023-03-03T01:36:02;51.08;;;28.20;;
76962;SDS011;65902;51.452;7.198;2023-03-03T01:37:10;53.42;;;25.77;;
76962;SDS011;65902;51.452;7.198;2023-03-03T01:38:11;49.92;;;29.08;;
76962;SDS011;65902;51.452;7.198;2023-03-03T01:39:15;55.75;;;30.23;;
76962;SDS011;65902;51.452;7.198;2023-03-03T01:40:17;49.88;;;26.85;;
76962;SDS011;65902;51.452;7.198;2023-03-03T01:41:22;54.03;;;30.15;;
76962;SDS011;65902;51.452;7.198;2023-03-03T01:42:29;56.40;;;34.58;;
76962;SDS011;65902;51.452;7.198;2023-03-03T01:43:33;55.97;;;28.95;;
76962;SDS011;65902;51.452;7.198;2023-03-03T01:44:42;44.88;;;23.48;;
76962;SDS011;65902;51.452;7.198;2023-03-03T01:46:58;57.22;;;29.10;;
76962;SDS011;65902;51.452;7.198;2023-03-03T01:48:13;56.33;;;27.40;;
76962;SDS011;65902;51.452;7.198;2023-03-03T01:49:28;54.97;;;27.27;;
76962;SDS011;65902;51.452;7.198;2023-03-03T01:51:44;55.13;;;27.20;;
76962;SDS011;65902;51.452;7.198;2023-03-03T01:52:55;53.05;;;28.42;;
76962;SDS011;65902;51.452;7.198;2023-03-03T01:54:02;55.95;;;26.65;;
76962;SDS011;65902;51.452;7.198;2023-03-03T01:55:24;46.83;;;27.40;;
76962;SDS011;65902;51.452;7.198;2023-03-03T01:56:29;53.15;;;28.27;;
76962;SDS011;65902;51.452;7.198;2023-03-03T01:57:34;55.13;;;29.48;;
76962;SDS011;65902;51.452;7.198;2023-03-03T01:59:43;50.15;;;25.48;;
76962;SDS011;65902;51.452;7.198;2023-03-03T02:00:48;51.63;;;27.20;;
76962;SDS011;65902;51.452;7.198;2023-03-03T02:01:52;55.38;;;27.00;;
76962;SDS011;65902;51.452;7.198;2023-03-03T02:02:53;57.33;;;30.23;;
76962;SDS011;65902;51.452;7.198;2023-03-03T02:03:54;52.25;;;29.58;;
76962;SDS011;65902;51.452;7.198;2023-03-03T02:04:55;56.80;;;32.17;;
76962;SDS011;65902;51.452;7.198;2023-03-03T02:05:57;60.85;;;30.70;;
76962;SDS011;65902;51.452;7.198;2023-03-03T02:07:00;56.75;;;29.63;;
76962;SDS011;65902;51.452;7.198;2023-03-03T02:08:06;56.72;;;28.92;;
76962;SDS011;65902;51.452;7.198;2023-03-03T02:09:13;63.00;;;31.38;;
76962;SDS011;65902;51.452;7.198;2023-03-03T02:10:18;62.85;;;29.70;;
76962;SDS011;65902;51.452;7.198;2023-03-03T02:11:20;60.85;;;27.88;;
76962;SDS011;65902;51.452;7.198;2023-03-03T02:12:22;59.33;;;31.77;;
76962;SDS011;65902;51.452;7.198;2023-03-03T02:13:28;67.93;;;32.72;;
76962;SDS011;65902;51.452;7.198;2023-03-03T02:14:29;53.88;;;26.83;;
76962;SDS011;65902;51.452;7.198;2023-03-03T02:15:33;59.97;;;32.05;;
76962;SDS011;65902;51.452;7.198;2023-03-03T02:16:37;56.00;;;25.90;;
76962;SDS011;65902;51.452;7.198;2023-03-03T02:17:40;48.35;;;29.02;;
76962;SDS011;65902;51.452;7.198;2023-03-03T02:18:41;47.33;;;23.38;;
76962;SDS011;65902;51.452;7.198;2023-03-03T02:20:00;52.00;;;31.83;;
76962;SDS011;65902;51.452;7.198;2023-03-03T02:21:14;38.67;;;23.67;;
76962;SDS011;65902;51.452;7.198;2023-03-03T02:22:26;51.40;;;26.00;;
76962;SDS011;65902;51.452;7.198;2023-03-03T02:25:10;51.20;;;23.52;;
76962;SDS011;65902;51.452;7.198;2023-03-03T02:26:18;43.10;;;24.90;;
76962;SDS011;65902;51.452;7.198;2023-03-03T02:27:21;56.65;;;27.83;;
76962;SDS011;65902;51.452;7.198;2023-03-03T02:28:23;50.47;;;26.00;;
76962;SDS011;65902;51.452;7.198;2023-03-03T02:29:27;53.28;;;27.65;;
76962;SDS011;65902;51.452;7.198;2023-03-03T02:30:28;52.97;;;25.98;;
76962;SDS011;65902;51.452;7.198;2023-03-03T02:31:29;53.35;;;28.15;;
76962;SDS011;65902;51.452;7.198;2023-03-03T02:32:35;48.97;;;24.40;;
76962;SDS011;65902;51.452;7.198;2023-03-03T02:33:35;58.00;;;27.67;;
76962;SDS011;65902;51.452;7.198;2023-03-03T02:34:51;52.55;;;25.90;;
76962;SDS011;65902;51.452;7.198;2023-03-03T02:35:54;58.75;;;26.42;;
76962;SDS011;65902;51.452;7.198;2023-03-03T02:36:55;48.60;;;25.70;;
76962;SDS011;65902;51.452;7.198;2023-03-03T02:38:00;50.50;;;26.70;;
76962;SDS011;65902;51.452;7.198;2023-03-03T02:40:25;59.97;;;31.70;;
76962;SDS011;65902;51.452;7.198;2023-03-03T02:41:34;58.95;;;28.70;;
76962;SDS011;65902;51.452;7.198;2023-03-03T02:42:58;53.42;;;29.95;;
76962;SDS011;65902;51.452;7.198;2023-03-03T02:44:05;53.15;;;28.38;;
76962;SDS011;65902;51.452;7.198;2023-03-03T02:45:13;64.55;;;32.55;;
76962;SDS011;65902;51.452;7.198;2023-03-03T02:46:14;57.58;;;31.20;;
76962;SDS011;65902;51.452;7.198;2023-03-03T02:47:15;51.28;;;27.85;;
76962;SDS011;65902;51.452;7.198;2023-03-03T02:48:20;61.38;;;28.00;;
76962;SDS011;65902;51.452;7.198;2023-03-03T02:49:28;59.03;;;30.25;;
76962;SDS011;65902;51.452;7.198;2023-03-03T02:50:31;56.65;;;35.90;;
76962;SDS011;65902;51.452;7.198;2023-03-03T02:51:36;58.67;;;31.98;;
76962;SDS011;65902;51.452;7.198;2023-03-03T02:52:42;51.85;;;27.58;;
76962;SDS011;65902;51.452;7.198;2023-03-03T02:53:48;55.92;;;28.23;;
76962;SDS011;65902;51.452;7.198;2023-03-03T02:54:49;54.40;;;25.08;;
76962;SDS011;65902;51.452;7.198;2023-03-03T02:55:50;60.03;;;31.25;;
76962;SDS011;65902;51.452;7.198;2023-03-03T02:56:53;67.00;;;31.60;;
76962;SDS011;65902;51.452;7.198;2023-03-03T02:57:56;35.33;;;21.25;;
76962;SDS011;65902;51.452;7.198;2023-03-03T02:58:57;58.10;;;27.85;;
76962;SDS011;65902;51.452;7.198;2023-03-03T02:59:58;59.92;;;27.80;;
76962;SDS011;65902;51.452;7.198;2023-03-03T03:01:01;63.40;;;32.45;;
76962;SDS011;65902;51.452;7.198;2023-03-03T03:02:04;56.55;;;28.58;;
76962;SDS011;65902;51.452;7.198;2023-03-03T03:03:08;63.22;;;32.42;;
76962;SDS011;65902;51.452;7.198;2023-03-03T03:05:13;69.13;;;37.53;;
76962;SDS011;65902;51.452;7.198;2023-03-03T03:06:14;66.65;;;32.75;;
76962;SDS011;65902;51.452;7.198;2023-03-03T03:07:18;64.93;;;29.15;;
76962;SDS011;65902;51.452;7.198;2023-03-03T03:08:21;69.53;;;38.10;;
76962;SDS011;65902;51.452;7.198;2023-03-03T03:09:24;61.65;;;30.50;;
76962;SDS011;65902;51.452;7.198;2023-03-03T03:10:25;58.35;;;31.30;;
76962;SDS011;65902;51.452;7.198;2023-03-03T03:11:26;65.32;;;31.17;;
76962;SDS011;65902;51.452;7.198;2023-03-03T03:12:29;63.28;;;29.60;;
76962;SDS011;65902;51.452;7.198;2023-03-03T03:13:30;66.22;;;28.27;;
76962;SDS011;65902;51.452;7.198;2023-03-03T03:14:31;63.42;;;32.95;;
76962;SDS011;65902;51.452;7.198;2023-03-03T03:15:33;64.03;;;30.30;;
76962;SDS011;65902;51.452;7.198;2023-03-03T03:16:34;62.45;;;30.92;;
76962;SDS011;65902;51.452;7.198;2023-03-03T03:17:38;63.42;;;30.42;;
76962;SDS011;65902;51.452;7.198;2023-03-03T03:18:38;60.75;;;33.13;;
76962;SDS011;65902;51.452;7.198;2023-03-03T03:19:44;65.43;;;33.63;;
76962;SDS011;65902;51.452;7.198;2023-03-03T03:20:44;68.90;;;29.45;;
76962;SDS011;65902;51.452;7.198;2023-03-03T03:21:45;63.80;;;31.65;;
76962;SDS011;65902;51.452;7.198;2023-03-03T03:22:45;63.50;;;30.38;;
76962;SDS011;65902;51.452;7.198;2023-03-03T03:23:46;45.97;;;22.75;;
76962;SDS011;65902;51.452;7.198;2023-03-03T03:24:49;72.85;;;38.13;;
76962;SDS011;65902;51.452;7.198;2023-03-03T03:25:50;67.57;;;31.65;;
76962;SDS011;65902;51.452;7.198;2023-03-03T03:26:53;69.63;;;33.55;;
76962;SDS011;65902;51.452;7.198;2023-03-03T03:27:53;74.45;;;30.73;;
76962;SDS011;65902;51.452;7.198;2023-03-03T03:28:56;67.88;;;30.73;;
76962;SDS011;65902;51.452;7.198;2023-03-03T03:29:57;65.50;;;27.63;;
76962;SDS011;65902;51.452;7.198;2023-03-03T03:30:58;68.65;;;28.33;;
76962;SDS011;65902;51.452;7.198;2023-03-03T03:32:01;64.05;;;31.02;;
76962;SDS011;65902;51.452;7.198;2023-03-03T03:33:02;70.00;;;33.50;;
76962;SDS011;65902;51.452;7.198;2023-03-03T03:34:02;64.70;;;31.15;;
76962;SDS011;65902;51.452;7.198;2023-03-03T03:35:03;77.72;;;33.42;;
76962;SDS011;65902;51.452;7.198;2023-03-03T03:36:04;69.82;;;34.35;;
76962;SDS011;65902;51.452;7.198;2023-03-03T03:37:05;70.97;;;32.67;;
76962;SDS011;65902;51.452;7.198;2023-03-03T03:38:09;70.82;;;30.13;;
76962;SDS011;65902;51.452;7.198;2023-03-03T03:39:11;72.50;;;34.78;;
76962;SDS011;65902;51.452;7.198;2023-03-03T03:40:12;71.57;;;38.10;;
76962;SDS011;65902;51.452;7.198;2023-03-03T03:41:13;72.55;;;36.75;;
76962;SDS011;65902;51.452;7.198;2023-03-03T03:42:14;75.22;;;31.85;;
76962;SDS011;65902;51.452;7.198;2023-03-03T03:43:18;76.53;;;38.75;;
76962;SDS011;65902;51.452;7.198;2023-03-03T03:44:18;61.00;;;24.88;;
76962;SDS011;65902;51.452;7.198;2023-03-03T03:45:19;61.00;;;30.70;;
76962;SDS011;65902;51.452;7.198;2023-03-03T03:46:20;74.50;;;36.30;;
76962;SDS011;65902;51.452;7.198;2023-03-03T03:47:23;76.25;;;33.53;;
76962;SDS011;65902;51.452;7.198;2023-03-03T03:48:24;61.10;;;29.45;;
76962;SDS011;65902;51.452;7.198;2023-03-03T03:49:25;73.55;;;33.35;;
76962;SDS011;65902;51.452;7.198;2023-03-03T03:50:26;71.25;;;30.95;;
76962;SDS011;65902;51.452;7.198;2023-03-03T03:51:31;71.18;;;33.20;;
76962;SDS011;65902;51.452;7.198;2023-03-03T03:52:33;65.13;;;30.90;;
76962;SDS011;65902;51.452;7.198;2023-03-03T03:53:34;73.00;;;33.83;;
76962;SDS011;65902;51.452;7.198;2023-03-03T03:54:35;78.20;;;36.88;;
76962;SDS011;65902;51.452;7.198;2023-03-03T03:55:38;69.05;;;31.60;;
76962;SDS011;65902;51.452;7.198;2023-03-03T03:56:39;69.88;;;32.20;;
76962;SDS011;65902;51.452;7.198;2023-03-03T03:57:42;68.13;;;31.02;;
76962;SDS011;65902;51.452;7.198;2023-03-03T03:58:45;54.20;;;23.52;;
76962;SDS011;65902;51.452;7.198;2023-03-03T03:59:48;60.65;;;28.25;;
76962;SDS011;65902;51.452;7.198;2023-03-03T04:00:49;58.33;;;27.85;;
76962;SDS011;65902;51.452;7.198;2023-03-03T04:01:50;60.05;;;29.55;;
76962;SDS011;65902;51.452;7.198;2023-03-03T04:02:54;73.13;;;34.65;;
76962;SDS011;65902;51.452;7.198;2023-03-03T04:04:01;58.58;;;26.83;;
76962;SDS011;65902;51.452;7.198;2023-03-03T04:05:03;62.03;;;27.95;;
76962;SDS011;65902;51.452;7.198;2023-03-03T04:06:04;60.47;;;28.40;;
76962;SDS011;65902;51.452;7.198;2023-03-03T04:07:08;68.10;;;32.08;;
76962;SDS011;65902;51.452;7.198;2023-03-03T04:08:09;63.75;;;31.70;;
76962;SDS011;65902;51.452;7.198;2023-03-03T04:09:10;55.53;;;25.42;;
76962;SDS011;65902;51.452;7.198;2023-03-03T04:10:11;64.28;;;28.90;;
76962;SDS011;65902;51.452;7.198;2023-03-03T04:11:12;70.85;;;30.88;;
76962;SDS011;65902;51.452;7.198;2023-03-03T04:12:15;66.50;;;29.15;;
76962;SDS011;65902;51.452;7.198;2023-03-03T04:13:18;67.70;;;28.48;;
76962;SDS011;65902;51.452;7.198;2023-03-03T04:14:19;52.67;;;24.65;;
76962;SDS011;65902;51.452;7.198;2023-03-03T04:15:22;60.55;;;26.10;;
76962;SDS011;65902;51.452;7.198;2023-03-03T04:16:22;54.85;;;25.23;;
76962;SDS011;65902;51.452;7.198;2023-03-03T04:17:23;57.53;;;26.85;;
76962;SDS011;65902;51.452;7.198;2023-03-03T04:18:26;48.92;;;23.92;;
76962;SDS011;65902;51.452;7.198;2023-03-03T04:19:29;64.20;;;27.50;;
76962;SDS011;65902;51.452;7.198;2023-03-03T04:20:30;59.97;;;26.48;;
76962;SDS011;65902;51.452;7.198;2023-03-03T04:21:30;56.88;;;27.73;;
76962;SDS011;65902;51.452;7.198;2023-03-03T04:22:33;55.78;;;25.10;;
76962;SDS011;65902;51.452;7.198;2023-03-03T04:23:36;55.85;;;24.23;;
76962;SDS011;65902;51.452;7.198;2023-03-03T04:24:37;52.42;;;25.30;;
76962;SDS011;65902;51.452;7.198;2023-03-03T04:25:38;52.47;;;24.20;;
76962;SDS011;65902;51.452;7.198;2023-03-03T04:26:38;54.75;;;23.90;;
76962;SDS011;65902;51.452;7.198;2023-03-03T04:27:42;55.55;;;23.75;;
76962;SDS011;65902;51.452;7.198;2023-03-03T04:28:45;58.08;;;25.08;;
76962;SDS011;65902;51.452;7.198;2023-03-03T04:29:46;45.72;;;21.13;;
76962;SDS011;65902;51.452;7.198;2023-03-03T04:30:47;52.55;;;23.80;;
76962;SDS011;65902;51.452;7.198;2023-03-03T04:31:48;52.35;;;23.60;;
76962;SDS011;65902;51.452;7.198;2023-03-03T04:32:51;44.75;;;20.63;;
76962;SDS011;65902;51.452;7.198;2023-03-03T04:33:52;39.03;;;19.95;;
76962;SDS011;65902;51.452;7.198;2023-03-03T04:34:54;51.38;;;23.10;;
76962;SDS011;65902;51.452;7.198;2023-03-03T04:35:55;49.13;;;22.65;;
76962;SDS011;65902;51.452;7.198;2023-03-03T04:36:58;47.47;;;23.40;;
76962;SDS011;65902;51.452;7.198;2023-03-03T04:38:02;44.85;;;21.20;;
76962;SDS011;65902;51.452;7.198;2023-03-03T04:39:04;34.78;;;16.75;;
76962;SDS011;65902;51.452;7.198;2023-03-03T04:40:10;42.15;;;20.83;;
76962;SDS011;65902;51.452;7.198;2023-03-03T04:41:11;48.80;;;22.58;;
76962;SDS011;65902;51.452;7.198;2023-03-03T04:42:15;49.03;;;20.63;;
76962;SDS011;65902;51.452;7.198;2023-03-03T04:43:18;44.78;;;20.75;;
76962;SDS011;65902;51.452;7.198;2023-03-03T04:44:21;51.05;;;27.92;;
76962;SDS011;65902;51.452;7.198;2023-03-03T04:45:22;48.53;;;23.70;;
76962;SDS011;65902;51.452;7.198;2023-03-03T04:46:22;48.30;;;21.38;;
76962;SDS011;65902;51.452;7.198;2023-03-03T04:47:23;48.13;;;22.40;;
76962;SDS011;65902;51.452;7.198;2023-03-03T04:48:26;31.38;;;15.57;;
76962;SDS011;65902;51.452;7.198;2023-03-03T04:49:27;39.20;;;21.20;;
76962;SDS011;65902;51.452;7.198;2023-03-03T04:50:28;48.08;;;20.90;;
76962;SDS011;65902;51.452;7.198;2023-03-03T04:51:29;38.47;;;20.63;;
76962;SDS011;65902;51.452;7.198;2023-03-03T04:52:32;51.88;;;22.50;;
76962;SDS011;65902;51.452;7.198;2023-03-03T04:53:35;40.50;;;16.52;;
76962;SDS011;65902;51.452;7.198;2023-03-03T04:54:37;39.78;;;19.27;;
76962;SDS011;65902;51.452;7.198;2023-03-03T04:55:38;41.53;;;20.20;;
76962;SDS011;65902;51.452;7.198;2023-03-03T04:56:41;48.60;;;21.25;;
76962;SDS011;65902;51.452;7.198;2023-03-03T04:57:44;47.95;;;23.17;;
76962;SDS011;65902;51.452;7.198;2023-03-03T04:58:46;43.67;;;20.65;;
76962;SDS011;65902;51.452;7.198;2023-03-03T04:59:47;50.67;;;22.90;;
76962;SDS011;65902;51.452;7.198;2023-03-03T05:00:55;43.28;;;22.83;;
76962;SDS011;65902;51.452;7.198;2023-03-03T05:01:56;44.70;;;21.60;;
76962;SDS011;65902;51.452;7.198;2023-03-03T05:02:57;49.63;;;22.17;;
76962;SDS011;65902;51.452;7.198;2023-03-03T05:03:58;34.95;;;18.10;;
76962;SDS011;65902;51.452;7.198;2023-03-03T05:04:59;44.60;;;22.02;;
76962;SDS011;65902;51.452;7.198;2023-03-03T05:05:59;39.20;;;19.58;;
76962;SDS011;65902;51.452;7.198;2023-03-03T05:07:02;37.72;;;21.92;;
76962;SDS011;65902;51.452;7.198;2023-03-03T05:08:03;39.88;;;21.45;;
76962;SDS011;65902;51.452;7.198;2023-03-03T05:09:07;51.67;;;40.45;;
76962;SDS011;65902;51.452;7.198;2023-03-03T05:10:09;40.70;;;20.88;;
76962;SDS011;65902;51.452;7.198;2023-03-03T05:11:12;42.55;;;19.83;;
76962;SDS011;65902;51.452;7.198;2023-03-03T05:12:15;46.00;;;21.58;;
76962;SDS011;65902;51.452;7.198;2023-03-03T05:13:19;39.92;;;20.52;;
76962;SDS011;65902;51.452;7.198;2023-03-03T05:14:22;39.53;;;18.77;;
76962;SDS011;65902;51.452;7.198;2023-03-03T05:15:23;41.42;;;21.52;;
76962;SDS011;65902;51.452;7.198;2023-03-03T05:16:26;33.55;;;21.27;;
76962;SDS011;65902;51.452;7.198;2023-03-03T05:17:26;32.17;;;19.27;;
76962;SDS011;65902;51.452;7.198;2023-03-03T05:18:27;40.22;;;20.20;;
76962;SDS011;65902;51.452;7.198;2023-03-03T05:20:31;43.58;;;17.23;;
76962;SDS011;65902;51.452;7.198;2023-03-03T05:21:32;43.78;;;20.70;;
76962;SDS011;65902;51.452;7.198;2023-03-03T05:22:33;48.67;;;22.02;;
76962;SDS011;65902;51.452;7.198;2023-03-03T05:23:34;52.80;;;24.35;;
76962;SDS011;65902;51.452;7.198;2023-03-03T05:24:35;51.45;;;22.95;;
76962;SDS011;65902;51.452;7.198;2023-03-03T05:25:41;47.92;;;22.38;;
76962;SDS011;65902;51.452;7.198;2023-03-03T05:26:42;42.80;;;19.67;;
76962;SDS011;65902;51.452;7.198;2023-03-03T05:27:42;54.28;;;24.70;;
76962;SDS011;65902;51.452;7.198;2023-03-03T05:28:45;52.30;;;23.90;;
76962;SDS011;65902;51.452;7.198;2023-03-03T05:29:46;47.22;;;20.88;;
76962;SDS011;65902;51.452;7.198;2023-03-03T05:30:47;45.05;;;19.90;;
76962;SDS011;65902;51.452;7.198;2023-03-03T05:31:48;47.50;;;25.30;;
76962;SDS011;65902;51.452;7.198;2023-03-03T05:32:49;53.90;;;22.52;;
76962;SDS011;65902;51.452;7.198;2023-03-03T05:33:49;46.38;;;22.55;;
76962;SDS011;65902;51.452;7.198;2023-03-03T05:34:50;44.03;;;23.15;;
76962;SDS011;65902;51.452;7.198;2023-03-03T05:35:52;47.15;;;23.88;;
76962;SDS011;65902;51.452;7.198;2023-03-03T05:36:53;46.00;;;22.75;;
76962;SDS011;65902;51.452;7.198;2023-03-03T05:37:54;47.58;;;21.92;;
76962;SDS011;65902;51.452;7.198;2023-03-03T05:39:00;51.35;;;22.98;;
76962;SDS011;65902;51.452;7.198;2023-03-03T05:40:03;52.28;;;24.35;;
76962;SDS011;65902;51.452;7.198;2023-03-03T05:41:04;45.75;;;24.27;;
76962;SDS011;65902;51.452;7.198;2023-03-03T05:42:05;51.65;;;23.25;;
76962;SDS011;65902;51.452;7.198;2023-03-03T05:43:06;50.35;;;22.45;;
76962;SDS011;65902;51.452;7.198;2023-03-03T05:44:07;52.60;;;24.05;;
76962;SDS011;65902;51.452;7.198;2023-03-03T05:45:10;50.08;;;22.85;;
76962;SDS011;65902;51.452;7.198;2023-03-03T05:46:14;52.17;;;24.67;;
76962;SDS011;65902;51.452;7.198;2023-03-03T05:47:15;51.50;;;24.88;;
76962;SDS011;65902;51.452;7.198;2023-03-03T05:48:16;48.55;;;23.42;;
76962;SDS011;65902;51.452;7.198;2023-03-03T05:49:17;50.10;;;31.92;;
76962;SDS011;65902;51.452;7.198;2023-03-03T05:50:18;27.63;;;15.07;;
76962;SDS011;65902;51.452;7.198;2023-03-03T05:51:20;55.45;;;27.63;;
76962;SDS011;65902;51.452;7.198;2023-03-03T05:52:21;47.90;;;23.05;;
76962;SDS011;65902;51.452;7.198;2023-03-03T05:53:24;42.00;;;21.27;;
76962;SDS011;65902;51.452;7.198;2023-03-03T05:54:28;42.53;;;20.08;;
76962;SDS011;65902;51.452;7.198;2023-03-03T05:55:31;51.28;;;24.48;;
76962;SDS011;65902;51.452;7.198;2023-03-03T05:56:32;46.78;;;24.38;;
76962;SDS011;65902;51.452;7.198;2023-03-03T05:57:32;47.50;;;22.35;;
76962;SDS011;65902;51.452;7.198;2023-03-03T05:58:37;52.00;;;24.38;;
76962;SDS011;65902;51.452;7.198;2023-03-03T05:59:38;45.00;;;22.83;;
76962;SDS011;65902;51.452;7.198;2023-03-03T06:00:39;29.67;;;19.70;;
76962;SDS011;65902;51.452;7.198;2023-03-03T06:01:40;52.53;;;23.67;;
76962;SDS011;65902;51.452;7.198;2023-03-03T06:02:46;48.45;;;23.45;;
76962;SDS011;65902;51.452;7.198;2023-03-03T06:03:47;50.38;;;24.60;;
76962;SDS011;65902;51.452;7.198;2023-03-03T06:04:48;46.75;;;21.50;;
76962;SDS011;65902;51.452;7.198;2023-03-03T06:05:51;59.65;;;26.80;;
76962;SDS011;65902;51.452;7.198;2023-03-03T06:06:54;53.30;;;23.10;;
76962;SDS011;65902;51.452;7.198;2023-03-03T06:07:55;53.08;;;24.02;;
76962;SDS011;65902;51.452;7.198;2023-03-03T06:08:56;44.80;;;21.95;;
76962;SDS011;65902;51.452;7.198;2023-03-03T06:09:56;62.40;;;25.58;;
76962;SDS011;65902;51.452;7.198;2023-03-03T06:10:57;88.72;;;44.22;;
76962;SDS011;65902;51.452;7.198;2023-03-03T06:11:58;61.20;;;26.80;;
76962;SDS011;65902;51.452;7.198;2023-03-03T06:13:01;60.20;;;30.60;;
76962;SDS011;65902;51.452;7.198;2023-03-03T06:14:02;55.13;;;25.67;;
76962;SDS011;65902;51.452;7.198;2023-03-03T06:15:07;49.25;;;24.88;;
76962;SDS011;65902;51.452;7.198;2023-03-03T06:16:09;52.42;;;24.58;;
76962;SDS011;65902;51.452;7.198;2023-03-03T06:17:10;55.10;;;28.58;;
76962;SDS011;65902;51.452;7.198;2023-03-03T06:18:15;62.05;;;27.10;;
76962;SDS011;65902;51.452;7.198;2023-03-03T06:19:19;54.03;;;27.27;;
76962;SDS011;65902;51.452;7.198;2023-03-03T06:20:20;54.55;;;23.38;;
76962;SDS011;65902;51.452;7.198;2023-03-03T06:21:23;55.92;;;25.85;;
76962;SDS011;65902;51.452;7.198;2023-03-03T06:22:24;52.72;;;30.73;;
76962;SDS011;65902;51.452;7.198;2023-03-03T06:23:24;56.80;;;28.90;;
76962;SDS011;65902;51.452;7.198;2023-03-03T06:24:25;54.55;;;24.27;;
76962;SDS011;65902;51.452;7.198;2023-03-03T06:25:29;57.03;;;26.50;;
76962;SDS011;65902;51.452;7.198;2023-03-03T06:26:35;45.58;;;24.50;;